createdAt,value
2017-12-05T00:01:25.168Z,9.33
2017-12-05T00:03:52.683Z,9.47
2017-12-05T00:06:20.354Z,8.60
2017-12-05T00:08:47.947Z,9.07
2017-12-05T00:11:15.481Z,9.53
2017-12-05T00:13:42.986Z,9.27
2017-12-05T00:16:10.533Z,9.10
2017-12-05T00:18:38.031Z,8.53
2017-12-05T00:21:06.294Z,11.10
2017-12-05T00:23:33.863Z,9.40
2017-12-05T00:26:01.637Z,9.80
2017-12-05T00:28:29.147Z,10.30
2017-12-05T00:30:56.693Z,9.50
2017-12-05T00:33:24.215Z,9.73
2017-12-05T00:35:52.490Z,9.63
2017-12-05T00:38:20.059Z,8.13
2017-12-05T00:40:47.558Z,9.83
2017-12-05T00:43:15.074Z,9.50
2017-12-05T00:45:44.066Z,9.00
2017-12-05T00:48:11.579Z,8.02
2017-12-05T00:50:39.103Z,10.77
2017-12-05T00:53:06.662Z,9.13
2017-12-05T00:55:34.175Z,7.82
2017-12-05T00:58:01.683Z,10.27
2017-12-05T01:00:29.230Z,9.40
2017-12-05T01:02:56.732Z,10.10
2017-12-05T01:05:25.530Z,10.77
2017-12-05T01:07:53.091Z,12.77
2017-12-05T01:10:21.240Z,11.83
2017-12-05T01:12:48.828Z,9.17
2017-12-05T01:15:16.387Z,8.63
2017-12-05T01:17:43.882Z,9.93
2017-12-05T01:20:11.382Z,8.50
2017-12-05T01:22:38.939Z,8.20
2017-12-05T01:25:06.963Z,8.63
2017-12-05T01:27:35.248Z,10.50
2017-12-05T01:30:03.666Z,8.93
2017-12-05T01:32:31.170Z,8.60
2017-12-05T01:34:58.715Z,9.03
2017-12-05T01:37:26.274Z,8.70
2017-12-05T01:39:53.811Z,9.50
2017-12-05T01:42:21.310Z,7.87
2017-12-05T01:44:49.202Z,7.77
2017-12-05T01:47:16.707Z,8.80
2017-12-05T01:49:44.234Z,8.90
2017-12-05T01:52:11.800Z,8.03
2017-12-05T01:54:39.303Z,8.87
2017-12-05T01:57:06.853Z,7.50
2017-12-05T01:59:34.411Z,8.10
2017-12-05T02:02:01.962Z,7.07
2017-12-05T02:04:30.243Z,7.10
2017-12-05T02:06:57.798Z,8.10
2017-12-05T02:09:25.328Z,6.77
2017-12-05T02:11:53.276Z,7.67
2017-12-05T02:14:20.827Z,9.27
2017-12-05T02:16:49.433Z,8.70
2017-12-05T02:19:16.961Z,7.80
2017-12-05T02:21:44.508Z,9.57
2017-12-05T02:24:12.014Z,8.90
2017-12-05T02:26:39.539Z,9.30
2017-12-05T02:29:07.241Z,9.80
2017-12-05T02:31:34.778Z,9.53
2017-12-05T02:34:02.292Z,8.63
2017-12-05T02:36:29.959Z,10.03
2017-12-05T02:38:57.475Z,9.20
2017-12-05T02:41:24.977Z,9.80
2017-12-05T02:43:52.533Z,10.33
2017-12-05T02:46:20.118Z,9.67
2017-12-05T02:48:47.623Z,10.50
2017-12-05T02:51:15.200Z,9.30
2017-12-05T02:53:42.720Z,10.17
2017-12-05T02:56:10.268Z,10.70
2017-12-05T02:58:38.593Z,10.67
2017-12-05T03:01:06.086Z,9.90
2017-12-05T03:03:33.599Z,9.60
2017-12-05T03:06:01.247Z,8.60
2017-12-05T03:08:28.771Z,10.10
2017-12-05T03:10:56.880Z,9.17
2017-12-05T03:13:24.724Z,9.77
2017-12-05T03:15:52.251Z,11.43
2017-12-05T03:18:20.787Z,11.53
2017-12-05T03:20:48.835Z,9.90
2017-12-05T03:23:16.363Z,10.80
2017-12-05T03:25:43.891Z,9.80
2017-12-05T03:28:11.447Z,9.73
2017-12-05T03:30:38.948Z,9.10
2017-12-05T03:33:06.450Z,9.43
2017-12-05T03:35:34.099Z,8.80
2017-12-05T03:38:01.669Z,8.43
2017-12-05T03:40:29.170Z,8.07
2017-12-05T03:42:56.706Z,9.27
2017-12-05T03:45:24.213Z,11.60
2017-12-05T03:47:52.099Z,8.30
2017-12-05T03:50:20.182Z,9.80
2017-12-05T03:52:47.691Z,9.20
2017-12-05T03:55:15.251Z,8.90
2017-12-05T03:57:42.835Z,8.90
2017-12-05T04:00:10.899Z,8.53
2017-12-05T04:02:39.196Z,7.50
2017-12-05T04:05:07.351Z,8.00
2017-12-05T04:07:34.854Z,10.30
2017-12-05T04:10:02.351Z,8.73
2017-12-05T04:12:29.907Z,8.00
2017-12-05T04:14:57.411Z,9.90
2017-12-05T04:17:24.931Z,9.73
2017-12-05T04:19:53.255Z,9.88
2017-12-05T04:22:20.759Z,10.53
2017-12-05T04:24:48.310Z,10.70
2017-12-05T04:27:15.864Z,9.87
2017-12-05T04:29:43.370Z,9.40
2017-12-05T04:32:10.883Z,12.00
2017-12-05T04:34:38.460Z,9.60
2017-12-05T04:37:06.004Z,10.63
2017-12-05T04:39:33.519Z,10.20
2017-12-05T04:42:01.203Z,13.45
2017-12-05T04:44:28.711Z,10.73
2017-12-05T04:46:56.234Z,10.40
2017-12-05T04:49:24.134Z,10.80
2017-12-05T04:51:51.630Z,11.40
2017-12-05T04:54:19.458Z,10.73
2017-12-05T04:56:47.027Z,11.00
2017-12-05T04:59:14.536Z,11.33
2017-12-05T05:01:42.058Z,12.50
2017-12-05T05:04:09.626Z,13.82
2017-12-05T05:06:37.139Z,12.03
2017-12-05T05:09:04.642Z,11.40
2017-12-05T05:11:32.208Z,13.80
2017-12-05T05:13:59.760Z,13.38
2017-12-05T05:16:27.879Z,14.40
2017-12-05T05:18:55.438Z,14.70
2017-12-05T05:21:23.654Z,14.93
2017-12-05T05:23:51.175Z,16.02
2017-12-05T05:26:18.738Z,15.27
2017-12-05T05:28:46.256Z,15.85
2017-12-05T05:31:13.772Z,15.03
2017-12-05T05:33:42.103Z,16.27
2017-12-05T05:36:09.618Z,17.80
2017-12-05T05:38:37.130Z,15.35
2017-12-05T05:41:04.798Z,17.25
2017-12-05T05:43:32.306Z,13.48
2017-12-05T05:45:59.838Z,13.55
2017-12-05T05:48:28.653Z,16.42
2017-12-05T05:50:56.206Z,16.80
2017-12-05T05:53:23.723Z,14.93
2017-12-05T05:55:51.374Z,16.90
2017-12-05T05:58:18.887Z,21.73
2017-12-05T06:00:46.394Z,25.30
2017-12-05T06:03:13.955Z,24.55
2017-12-05T06:05:41.568Z,23.60
2017-12-05T06:08:09.095Z,23.08
2017-12-05T06:10:36.663Z,18.15
2017-12-05T06:13:04.185Z,18.35
2017-12-05T06:15:31.710Z,15.90
2017-12-05T06:17:59.370Z,16.47
2017-12-05T06:20:26.887Z,15.60
2017-12-05T06:22:54.412Z,17.33
2017-12-05T06:25:21.963Z,16.53
2017-12-05T06:27:49.475Z,18.10
2017-12-05T06:30:17.013Z,17.60
2017-12-05T06:32:44.580Z,20.00
2017-12-05T06:35:12.104Z,19.60
2017-12-05T06:37:39.647Z,19.85
2017-12-05T06:40:07.238Z,17.25
2017-12-05T06:42:34.919Z,17.57
2017-12-05T06:45:02.455Z,20.00
2017-12-05T06:47:30.234Z,18.60
2017-12-05T06:49:57.749Z,16.75
2017-12-05T06:52:25.277Z,18.27
2017-12-05T06:54:54.467Z,18.60
2017-12-05T06:57:21.991Z,16.17
2017-12-05T06:59:49.504Z,18.53
2017-12-05T07:02:17.210Z,16.33
2017-12-05T07:04:44.719Z,20.55
2017-12-05T07:07:12.240Z,19.23
2017-12-05T07:09:39.836Z,17.92
2017-12-05T07:12:08.127Z,19.27
2017-12-05T07:14:36.419Z,19.20
2017-12-05T07:17:03.972Z,16.17
2017-12-05T07:19:31.487Z,15.73
2017-12-05T07:21:59.223Z,17.93
2017-12-05T07:24:26.734Z,14.90
2017-12-05T07:26:54.258Z,14.63
2017-12-05T07:29:21.851Z,15.23
2017-12-05T07:31:49.363Z,15.03
2017-12-05T07:34:16.924Z,17.07
2017-12-05T07:36:44.523Z,12.73
2017-12-05T07:39:12.486Z,14.73
2017-12-05T07:41:39.990Z,13.70
2017-12-05T07:44:07.590Z,15.70
2017-12-05T07:46:35.090Z,14.90
2017-12-05T07:49:02.600Z,13.00
2017-12-05T07:51:30.134Z,14.87
2017-12-05T07:53:57.638Z,13.93
2017-12-05T07:56:25.198Z,14.50
2017-12-05T07:58:52.763Z,13.87
2017-12-05T08:01:21.214Z,14.00
2017-12-05T08:03:48.721Z,14.27
2017-12-05T08:06:16.414Z,15.30
2017-12-05T08:08:43.930Z,16.27
2017-12-05T08:11:11.434Z,16.53
2017-12-05T08:13:39.454Z,12.43
2017-12-05T08:16:07.150Z,13.17
2017-12-05T08:18:35.538Z,13.30
2017-12-05T08:21:03.535Z,12.63
2017-12-05T08:23:31.338Z,13.20
2017-12-05T08:25:58.890Z,12.47
2017-12-05T08:28:26.399Z,12.37
2017-12-05T08:30:53.908Z,12.63
2017-12-05T08:33:21.470Z,14.80
2017-12-05T08:35:48.970Z,13.43
2017-12-05T08:38:16.923Z,16.00
2017-12-05T08:40:44.491Z,13.07
2017-12-05T08:43:12.006Z,14.73
2017-12-05T08:45:39.514Z,15.37
2017-12-05T08:48:07.171Z,19.33
2017-12-05T08:50:35.434Z,19.77
2017-12-05T08:53:03.735Z,13.67
2017-12-05T08:55:32.055Z,14.10
2017-12-05T08:57:59.558Z,16.60
2017-12-05T09:00:27.058Z,14.53
2017-12-05T09:02:55.087Z,13.60
2017-12-05T09:05:23.531Z,14.17
2017-12-05T09:07:52.634Z,13.83
2017-12-05T09:10:20.138Z,11.50
2017-12-05T09:12:47.695Z,13.37
2017-12-05T09:15:15.210Z,12.03
2017-12-05T09:17:42.710Z,12.17
2017-12-05T09:20:10.287Z,12.87
2017-12-05T09:22:37.790Z,13.80
2017-12-05T09:25:05.455Z,14.13
2017-12-05T09:27:33.098Z,13.20
2017-12-05T09:30:01.707Z,13.53
2017-12-05T09:32:29.223Z,10.47
2017-12-05T09:34:56.823Z,13.27
2017-12-05T09:37:25.109Z,11.93
2017-12-05T09:39:52.611Z,11.13
2017-12-05T09:42:20.170Z,11.17
2017-12-05T09:44:47.975Z,11.90
2017-12-05T09:47:15.487Z,13.37
2017-12-05T09:49:43.059Z,11.50
2017-12-05T09:52:10.567Z,11.17
2017-12-05T09:54:38.087Z,9.77
2017-12-05T09:57:06.090Z,11.17
2017-12-05T09:59:33.635Z,11.10
2017-12-05T10:02:01.656Z,12.23
2017-12-05T10:04:29.206Z,13.00
2017-12-05T10:06:57.335Z,11.73
2017-12-05T10:09:26.370Z,12.50
2017-12-05T10:11:53.922Z,11.87
2017-12-05T10:14:21.456Z,10.93
2017-12-05T10:16:48.954Z,11.30
2017-12-05T10:19:17.122Z,13.10
2017-12-05T10:21:44.647Z,11.60
2017-12-05T10:24:12.153Z,10.40
2017-12-05T10:26:39.707Z,10.60
2017-12-05T10:29:07.234Z,13.07
2017-12-05T10:31:35.509Z,11.30
2017-12-05T10:34:03.831Z,12.30
2017-12-05T10:36:31.330Z,11.77
2017-12-05T10:38:58.845Z,10.90
2017-12-05T10:41:26.406Z,11.10
2017-12-05T10:43:53.904Z,11.07
2017-12-05T10:46:21.412Z,11.53
2017-12-05T10:48:48.974Z,12.30
2017-12-05T10:51:16.531Z,11.10
2017-12-05T10:53:44.042Z,10.20
2017-12-05T10:56:12.002Z,11.23
2017-12-05T10:58:39.835Z,11.40
2017-12-05T11:01:07.399Z,12.90
2017-12-05T11:03:34.959Z,12.30
2017-12-05T11:06:02.463Z,10.93
2017-12-05T11:08:29.969Z,9.33
2017-12-05T11:10:57.514Z,12.37
2017-12-05T11:13:25.278Z,13.63
2017-12-05T11:15:52.802Z,9.77
2017-12-05T11:18:20.523Z,9.57
2017-12-05T11:20:48.563Z,11.33
2017-12-05T11:23:16.487Z,11.17
2017-12-05T11:25:44.058Z,10.57
2017-12-05T11:28:11.730Z,11.10
2017-12-05T11:30:39.498Z,10.27
2017-12-05T11:33:07.075Z,9.10
2017-12-05T11:35:35.435Z,8.57
2017-12-05T11:38:02.926Z,7.60
2017-12-05T11:40:30.422Z,8.00
2017-12-05T11:42:57.963Z,7.63
2017-12-05T11:45:25.460Z,5.50
2017-12-05T11:47:52.959Z,6.20
2017-12-05T11:50:20.515Z,7.50
2017-12-05T11:52:48.006Z,6.20
2017-12-05T11:55:16.146Z,8.00
2017-12-05T11:57:43.695Z,7.33
2017-12-05T12:00:11.204Z,6.57
2017-12-05T12:02:38.710Z,6.30
2017-12-05T12:05:06.286Z,8.17
2017-12-05T12:07:35.226Z,6.83
2017-12-05T12:10:02.730Z,7.27
2017-12-05T12:12:30.279Z,8.77
2017-12-05T12:14:58.615Z,7.30
2017-12-05T12:17:26.401Z,7.60
2017-12-05T12:19:54.345Z,7.80
2017-12-05T12:22:21.838Z,8.73
2017-12-05T12:24:49.338Z,8.80
2017-12-05T12:27:16.903Z,8.93
2017-12-05T12:29:44.419Z,6.90
2017-12-05T12:32:11.923Z,7.43
2017-12-05T12:34:39.479Z,8.00
2017-12-05T12:37:07.079Z,7.60
2017-12-05T12:39:35.354Z,7.70
2017-12-05T12:42:03.174Z,8.50
2017-12-05T12:44:30.670Z,11.47
2017-12-05T12:46:58.171Z,11.37
2017-12-05T12:49:25.881Z,9.13
2017-12-05T12:51:53.588Z,8.37
2017-12-05T12:54:21.114Z,9.60
2017-12-05T12:56:48.672Z,9.37
2017-12-05T12:59:16.817Z,8.73
2017-12-05T13:01:44.316Z,9.47
2017-12-05T13:04:11.876Z,7.47
2017-12-05T13:06:39.379Z,8.70
2017-12-05T13:09:07.444Z,6.57
2017-12-05T13:11:35.015Z,7.93
2017-12-05T13:14:03.037Z,7.77
2017-12-05T13:16:30.643Z,7.77
2017-12-05T13:18:58.459Z,9.43
2017-12-05T13:21:26.585Z,6.57
2017-12-05T13:23:54.271Z,8.83
2017-12-05T13:26:22.311Z,9.33
2017-12-05T13:28:50.363Z,10.27
2017-12-05T13:31:17.876Z,8.13
2017-12-05T13:33:45.383Z,12.27
2017-12-05T13:36:12.939Z,9.43
2017-12-05T13:38:40.459Z,8.53
2017-12-05T13:41:07.964Z,9.53
2017-12-05T13:43:35.515Z,12.60
2017-12-05T13:46:03.014Z,11.43
2017-12-05T13:48:30.590Z,10.83
2017-12-05T13:50:58.102Z,9.90
2017-12-05T13:53:25.694Z,11.87
2017-12-05T13:55:53.222Z,10.97
2017-12-05T13:58:20.730Z,12.23
2017-12-05T14:00:48.343Z,12.40
2017-12-05T14:03:15.876Z,11.23
2017-12-05T14:05:43.383Z,11.80
2017-12-05T14:08:10.951Z,12.50
2017-12-05T14:10:38.459Z,11.70
2017-12-05T14:13:05.963Z,14.30
2017-12-05T14:15:33.531Z,12.20
2017-12-05T14:18:01.034Z,12.20
2017-12-05T14:20:29.315Z,10.87
2017-12-05T14:22:57.218Z,10.83
2017-12-05T14:25:24.822Z,9.90
2017-12-05T14:27:52.332Z,10.23
2017-12-05T14:30:19.874Z,9.00
2017-12-05T14:32:47.380Z,11.23
2017-12-05T14:35:14.883Z,11.67
2017-12-05T14:37:42.456Z,10.27
2017-12-05T14:40:09.958Z,11.43
2017-12-05T14:42:37.459Z,9.37
2017-12-05T14:45:06.399Z,10.83
2017-12-05T14:47:34.109Z,10.47
2017-12-05T14:50:01.578Z,10.60
2017-12-05T14:52:29.107Z,9.73
2017-12-05T14:54:57.383Z,14.30
2017-12-05T14:57:24.915Z,13.10
2017-12-05T14:59:52.495Z,9.00
2017-12-05T15:02:20.007Z,11.60
2017-12-05T15:04:47.511Z,10.47
2017-12-05T15:07:15.106Z,13.40
2017-12-05T15:09:42.616Z,10.07
2017-12-05T15:12:10.118Z,9.80
2017-12-05T15:14:38.214Z,10.00
2017-12-05T15:17:05.739Z,11.90
2017-12-05T15:19:33.242Z,12.33
2017-12-05T15:22:00.783Z,11.03
2017-12-05T15:24:28.284Z,10.03
2017-12-05T15:26:55.799Z,9.27
2017-12-05T15:29:23.352Z,9.23
2017-12-05T15:31:50.858Z,9.37
2017-12-05T15:34:19.284Z,9.60
2017-12-05T15:36:46.819Z,9.40
2017-12-05T15:39:14.327Z,10.87
2017-12-05T15:41:41.994Z,11.63
2017-12-05T15:44:09.500Z,9.80
2017-12-05T15:46:37.335Z,9.83
2017-12-05T15:49:05.948Z,10.20
2017-12-05T15:51:33.935Z,11.93
2017-12-05T15:54:02.140Z,11.47
2017-12-05T15:56:29.648Z,12.13
2017-12-05T15:58:57.219Z,11.30
2017-12-05T16:01:25.363Z,10.30
2017-12-05T16:03:53.639Z,13.40
2017-12-05T16:06:21.714Z,11.43
2017-12-05T16:08:49.226Z,10.80
2017-12-05T16:11:16.871Z,11.00
2017-12-05T16:13:44.424Z,11.10
2017-12-05T16:16:12.886Z,11.70
2017-12-05T16:18:40.398Z,12.20
2017-12-05T16:21:07.914Z,12.50
2017-12-05T16:23:36.045Z,9.70
2017-12-05T16:26:04.345Z,9.57
2017-12-05T16:28:32.304Z,11.83
2017-12-05T16:31:00.595Z,14.20
2017-12-05T16:33:28.106Z,10.70
2017-12-05T16:35:55.602Z,10.20
2017-12-05T16:38:23.855Z,11.47
2017-12-05T16:40:51.363Z,11.53
2017-12-05T16:43:18.868Z,10.93
2017-12-05T16:45:46.408Z,11.67
2017-12-05T16:48:14.636Z,10.90
2017-12-05T16:50:42.205Z,11.30
2017-12-05T16:53:09.779Z,11.87
2017-12-05T16:55:37.356Z,10.70
2017-12-05T16:58:04.920Z,11.07
2017-12-05T17:00:32.500Z,13.80
2017-12-05T17:03:00.835Z,14.80
2017-12-05T17:05:28.355Z,12.33
2017-12-05T17:07:55.858Z,13.00
2017-12-05T17:10:23.904Z,13.03
2017-12-05T17:12:51.442Z,12.97
2017-12-05T17:15:19.721Z,15.10
2017-12-05T17:17:47.267Z,14.73
2017-12-05T17:20:14.890Z,13.07
2017-12-05T17:22:42.422Z,14.57
2017-12-05T17:25:09.994Z,12.40
2017-12-05T17:27:37.504Z,13.20
2017-12-05T17:30:05.014Z,13.30
2017-12-05T17:32:32.658Z,13.97
2017-12-05T17:35:00.168Z,12.20
2017-12-05T17:37:27.695Z,13.57
2017-12-05T17:39:55.367Z,13.17
2017-12-05T17:42:22.936Z,10.77
2017-12-05T17:44:50.451Z,12.90
2017-12-05T17:47:18.251Z,12.27
2017-12-05T17:49:46.532Z,13.80
2017-12-05T17:52:14.826Z,13.27
2017-12-05T17:54:42.382Z,14.53
2017-12-05T17:57:09.891Z,14.97
2017-12-05T17:59:37.399Z,17.20
2017-12-05T18:02:05.003Z,19.83
2017-12-05T18:04:32.784Z,16.10
2017-12-05T18:07:00.299Z,19.50
2017-12-05T18:09:27.875Z,16.57
2017-12-05T18:11:55.399Z,17.03
2017-12-05T18:14:22.910Z,18.20
2017-12-05T18:16:51.027Z,16.07
2017-12-05T18:19:20.062Z,17.20
2017-12-05T18:21:47.615Z,16.50
2017-12-05T18:24:15.919Z,17.30
2017-12-05T18:26:43.440Z,18.30
2017-12-05T18:29:10.952Z,15.07
2017-12-05T18:31:39.036Z,17.07
2017-12-05T18:34:07.455Z,17.40
2017-12-05T18:36:34.996Z,16.23
2017-12-05T18:39:02.512Z,17.00
2017-12-05T18:41:30.886Z,17.07
2017-12-05T18:43:58.682Z,17.87
2017-12-05T18:46:26.254Z,17.00
2017-12-05T18:48:54.771Z,15.47
2017-12-05T18:51:22.503Z,16.77
2017-12-05T18:53:49.980Z,15.80
2017-12-05T18:56:17.579Z,14.30
2017-12-05T18:58:45.192Z,15.13
2017-12-05T19:01:12.712Z,15.37
2017-12-05T19:03:40.267Z,14.63
2017-12-05T19:06:07.916Z,15.13
2017-12-05T19:08:35.427Z,16.47
2017-12-05T19:11:03.553Z,13.97
2017-12-05T19:13:31.072Z,13.52
2017-12-05T19:15:58.578Z,14.20
2017-12-05T19:18:26.338Z,14.87
2017-12-05T19:20:54.163Z,14.70
2017-12-05T19:23:21.703Z,15.37
2017-12-05T19:25:49.283Z,16.33
2017-12-05T19:28:16.791Z,14.63
2017-12-05T19:30:44.338Z,15.07
2017-12-05T19:33:12.150Z,16.73
2017-12-05T19:35:39.656Z,15.73
2017-12-05T19:38:07.159Z,17.67
2017-12-05T19:40:35.478Z,16.80
2017-12-05T19:43:03.010Z,12.60
2017-12-05T19:45:30.526Z,15.43
2017-12-05T19:47:58.099Z,13.90
2017-12-05T19:50:25.606Z,14.83
2017-12-05T19:52:53.495Z,13.60
2017-12-05T19:55:21.092Z,13.40
2017-12-05T19:57:48.616Z,13.97
2017-12-05T20:00:16.135Z,14.73
2017-12-05T20:02:43.701Z,16.90
2017-12-05T20:05:11.218Z,14.60
2017-12-05T20:07:39.781Z,13.37
2017-12-05T20:10:07.326Z,16.53
2017-12-05T20:12:34.850Z,14.83
2017-12-05T20:15:02.363Z,16.87
2017-12-05T20:17:29.914Z,15.50
2017-12-05T20:19:57.900Z,15.73
2017-12-05T20:22:25.426Z,13.73
2017-12-05T20:24:53.051Z,16.00
2017-12-05T20:27:20.708Z,15.30
2017-12-05T20:29:48.542Z,12.87
2017-12-05T20:32:16.125Z,12.07
2017-12-05T20:34:45.084Z,15.27
2017-12-05T20:37:13.442Z,12.13
2017-12-05T20:39:41.772Z,11.90
2017-12-05T20:42:10.107Z,12.50
2017-12-05T20:44:37.643Z,11.93
2017-12-05T20:47:05.642Z,11.43
2017-12-05T20:49:33.216Z,11.90
2017-12-05T20:52:01.408Z,12.30
2017-12-05T20:54:30.136Z,11.87
2017-12-05T20:56:57.643Z,10.10
2017-12-05T20:59:25.146Z,11.00
2017-12-05T21:01:52.701Z,12.60
2017-12-05T21:04:20.499Z,13.20
2017-12-05T21:06:48.010Z,13.77
2017-12-05T21:09:15.567Z,12.23
2017-12-05T21:11:43.919Z,12.43
2017-12-05T21:14:11.424Z,14.23
2017-12-05T21:16:38.928Z,12.50
2017-12-05T21:19:06.498Z,12.57
2017-12-05T21:21:34.607Z,12.67
2017-12-05T21:24:02.123Z,12.73
2017-12-05T21:26:29.663Z,12.83
2017-12-05T21:28:57.181Z,12.97
2017-12-05T21:31:24.699Z,11.27
2017-12-05T21:33:52.423Z,13.33
2017-12-05T21:36:20.154Z,13.80
2017-12-05T21:38:47.706Z,13.73
2017-12-05T21:41:15.278Z,13.97
2017-12-05T21:43:42.791Z,13.17
2017-12-05T21:46:10.291Z,14.00
2017-12-05T21:48:38.636Z,14.03
2017-12-05T21:51:07.058Z,14.70
2017-12-05T21:53:35.122Z,14.80
2017-12-05T21:56:02.834Z,13.43
2017-12-05T21:58:31.223Z,14.67
2017-12-05T22:00:59.371Z,13.47
2017-12-05T22:03:26.887Z,14.03
2017-12-05T22:05:55.272Z,14.10
2017-12-05T22:08:23.382Z,13.80
2017-12-05T22:10:50.895Z,15.33
2017-12-05T22:13:18.443Z,14.70
2017-12-05T22:15:46.603Z,16.07
2017-12-05T22:18:14.889Z,16.70
2017-12-05T22:20:42.615Z,16.53
2017-12-05T22:23:10.611Z,15.60
2017-12-05T22:25:38.114Z,15.43
2017-12-05T22:28:05.639Z,15.03
2017-12-05T22:30:33.363Z,13.10
2017-12-05T22:33:00.882Z,15.32
2017-12-05T22:35:28.386Z,16.03
2017-12-05T22:37:56.449Z,12.73
2017-12-05T22:40:23.955Z,12.43
2017-12-05T22:42:51.463Z,13.20
2017-12-05T22:45:19.031Z,13.60
2017-12-05T22:47:46.542Z,13.80
2017-12-05T22:50:14.132Z,12.80
2017-12-05T22:52:43.476Z,13.80
2017-12-05T22:55:12.931Z,12.20
2017-12-05T22:57:40.541Z,12.60
2017-12-05T23:00:08.454Z,13.00
2017-12-05T23:02:36.122Z,13.47
2017-12-05T23:05:03.871Z,13.93
2017-12-05T23:07:33.004Z,13.47
2017-12-05T23:10:00.806Z,13.90
2017-12-05T23:12:28.311Z,12.37
2017-12-05T23:14:55.831Z,12.33
2017-12-05T23:17:23.510Z,12.60
2017-12-05T23:19:51.027Z,11.40
2017-12-05T23:22:18.555Z,12.67
2017-12-05T23:24:46.147Z,12.30
2017-12-05T23:27:14.326Z,14.23
2017-12-05T23:29:41.895Z,13.33
2017-12-05T23:32:09.404Z,12.07
2017-12-05T23:34:36.952Z,11.40
2017-12-05T23:37:04.494Z,13.15
2017-12-05T23:39:32.763Z,11.80
2017-12-05T23:42:01.195Z,12.57
2017-12-05T23:44:28.715Z,12.77
2017-12-05T23:46:56.218Z,11.73
2017-12-05T23:49:23.838Z,12.87
2017-12-05T23:51:52.438Z,13.10
2017-12-05T23:54:19.944Z,10.60
2017-12-05T23:56:47.491Z,13.00
2017-12-05T23:59:15.014Z,14.73
